sensor_id;sensor_type;location;lat;lon;timestamp;temperature;humidity
24087;DHT22;22893;50.572;7.234;2022-07-31T03:42:21;24.00;73.90
24087;DHT22;22893;50.572;7.234;2022-07-31T03:44:50;24.10;73.40
24087;DHT22;22893;50.572;7.234;2022-07-31T03:47:18;24.10;73.10
24087;DHT22;22893;50.572;7.234;2022-07-31T03:49:46;24.00;73.20
24087;DHT22;22893;50.572;7.234;2022-07-31T03:52:15;24.00;73.70
24087;DHT22;22893;50.572;7.234;2022-07-31T03:54:43;24.00;74.50
24087;DHT22;22893;50.572;7.234;2022-07-31T03:57:11;23.90;74.80
24087;DHT22;22893;50.572;7.234;2022-07-31T03:59:39;23.90;75.30
24087;DHT22;22893;50.572;7.234;2022-07-31T04:02:07;23.90;75.60
24087;DHT22;22893;50.572;7.234;2022-07-31T04:04:37;23.80;75.90
24087;DHT22;22893;50.572;7.234;2022-07-31T04:07:05;23.80;75.50
24087;DHT22;22893;50.572;7.234;2022-07-31T04:11:29;23.90;78.30
24087;DHT22;22893;50.572;7.234;2022-07-31T04:13:57;23.90;75.90
24087;DHT22;22893;50.572;7.234;2022-07-31T04:16:24;23.90;75.30
24087;DHT22;22893;50.572;7.234;2022-07-31T04:18:52;23.90;74.30
24087;DHT22;22893;50.572;7.234;2022-07-31T04:21:19;23.90;74.90
24087;DHT22;22893;50.572;7.234;2022-07-31T04:23:47;23.90;74.80
24087;DHT22;22893;50.572;7.234;2022-07-31T04:26:14;23.90;74.80
24087;DHT22;22893;50.572;7.234;2022-07-31T04:28:42;23.90;74.50
24087;DHT22;22893;50.572;7.234;2022-07-31T04:31:10;24.00;74.50
24087;DHT22;22893;50.572;7.234;2022-07-31T04:33:37;24.00;75.10
24087;DHT22;22893;50.572;7.234;2022-07-31T04:36:05;24.00;74.40
24087;DHT22;22893;50.572;7.234;2022-07-31T04:38:32;24.00;74.30
24087;DHT22;22893;50.572;7.234;2022-07-31T04:41:00;24.00;74.30
24087;DHT22;22893;50.572;7.234;2022-07-31T04:43:27;24.00;75.10
24087;DHT22;22893;50.572;7.234;2022-07-31T04:45:55;24.00;74.30
24087;DHT22;22893;50.572;7.234;2022-07-31T04:48:23;24.00;74.20
24087;DHT22;22893;50.572;7.234;2022-07-31T04:50:50;24.00;74.10
24087;DHT22;22893;50.572;7.234;2022-07-31T04:53:18;24.00;74.20
24087;DHT22;22893;50.572;7.234;2022-07-31T04:55:45;24.00;74.10
24087;DHT22;22893;50.572;7.234;2022-07-31T04:58:15;24.00;74.10
24087;DHT22;22893;50.572;7.234;2022-07-31T05:00:42;24.00;74.10
24087;DHT22;22893;50.572;7.234;2022-07-31T05:03:10;24.00;74.10
24087;DHT22;22893;50.572;7.234;2022-07-31T05:05:37;24.10;74.10
24087;DHT22;22893;50.572;7.234;2022-07-31T05:08:06;24.00;74.00
24087;DHT22;22893;50.572;7.234;2022-07-31T05:10:34;24.00;74.10
24087;DHT22;22893;50.572;7.234;2022-07-31T05:13:19;24.00;74.10
24087;DHT22;22893;50.572;7.234;2022-07-31T05:15:47;24.00;74.10
24087;DHT22;22893;50.572;7.234;2022-07-31T05:18:14;24.00;74.10
24087;DHT22;22893;50.572;7.234;2022-07-31T05:20:42;24.10;74.20
24087;DHT22;22893;50.572;7.234;2022-07-31T05:23:09;24.10;74.10
24087;DHT22;22893;50.572;7.234;2022-07-31T05:25:37;24.00;74.10
24087;DHT22;22893;50.572;7.234;2022-07-31T05:28:04;24.00;74.10
24087;DHT22;22893;50.572;7.234;2022-07-31T05:30:32;24.00;74.10
24087;DHT22;22893;50.572;7.234;2022-07-31T05:32:59;24.00;74.00
24087;DHT22;22893;50.572;7.234;2022-07-31T05:35:27;24.10;74.10
24087;DHT22;22893;50.572;7.234;2022-07-31T05:37:54;24.00;74.00
24087;DHT22;22893;50.572;7.234;2022-07-31T05:40:22;24.10;74.20
24087;DHT22;22893;50.572;7.234;2022-07-31T05:42:49;24.10;74.10
24087;DHT22;22893;50.572;7.234;2022-07-31T05:45:17;24.00;74.00
24087;DHT22;22893;50.572;7.234;2022-07-31T05:47:45;24.00;74.00
24087;DHT22;22893;50.572;7.234;2022-07-31T05:50:13;24.00;74.10
24087;DHT22;22893;50.572;7.234;2022-07-31T05:52:40;24.10;74.10
24087;DHT22;22893;50.572;7.234;2022-07-31T05:55:08;24.10;74.10
24087;DHT22;22893;50.572;7.234;2022-07-31T05:57:36;24.10;74.10
24087;DHT22;22893;50.572;7.234;2022-07-31T06:00:04;24.00;74.00
24087;DHT22;22893;50.572;7.234;2022-07-31T06:02:32;24.10;74.10
24087;DHT22;22893;50.572;7.234;2022-07-31T06:04:59;24.00;74.00
24087;DHT22;22893;50.572;7.234;2022-07-31T06:07:27;24.10;74.10
24087;DHT22;22893;50.572;7.234;2022-07-31T06:09:54;24.00;73.90
24087;DHT22;22893;50.572;7.234;2022-07-31T06:12:22;24.10;74.00
24087;DHT22;22893;50.572;7.234;2022-07-31T06:14:50;24.10;74.10
24087;DHT22;22893;50.572;7.234;2022-07-31T06:17:17;24.00;73.90
24087;DHT22;22893;50.572;7.234;2022-07-31T06:19:45;24.10;74.10
24087;DHT22;22893;50.572;7.234;2022-07-31T06:22:12;24.00;74.10
24087;DHT22;22893;50.572;7.234;2022-07-31T06:24:40;24.10;74.20
24087;DHT22;22893;50.572;7.234;2022-07-31T06:27:08;24.00;74.10
24087;DHT22;22893;50.572;7.234;2022-07-31T06:29:35;24.10;74.00
24087;DHT22;22893;50.572;7.234;2022-07-31T06:32:03;24.00;73.90
24087;DHT22;22893;50.572;7.234;2022-07-31T06:34:31;24.10;74.10
24087;DHT22;22893;50.572;7.234;2022-07-31T06:36:59;24.10;74.10
24087;DHT22;22893;50.572;7.234;2022-07-31T06:39:26;24.00;74.00
24087;DHT22;22893;50.572;7.234;2022-07-31T06:41:54;24.10;74.10
24087;DHT22;22893;50.572;7.234;2022-07-31T06:44:21;24.00;74.10
24087;DHT22;22893;50.572;7.234;2022-07-31T06:46:49;24.00;74.00
24087;DHT22;22893;50.572;7.234;2022-07-31T06:49:18;24.10;74.10
24087;DHT22;22893;50.572;7.234;2022-07-31T06:51:45;24.10;74.10
24087;DHT22;22893;50.572;7.234;2022-07-31T06:54:13;24.10;74.10
24087;DHT22;22893;50.572;7.234;2022-07-31T06:56:40;24.10;74.30
24087;DHT22;22893;50.572;7.234;2022-07-31T06:59:08;24.10;74.30
24087;DHT22;22893;50.572;7.234;2022-07-31T07:01:36;24.10;74.10
24087;DHT22;22893;50.572;7.234;2022-07-31T07:04:04;24.10;74.70
24087;DHT22;22893;50.572;7.234;2022-07-31T07:06:31;24.10;74.70
24087;DHT22;22893;50.572;7.234;2022-07-31T07:08:59;24.10;75.10
24087;DHT22;22893;50.572;7.234;2022-07-31T07:11:26;24.00;75.00
24087;DHT22;22893;50.572;7.234;2022-07-31T07:13:54;24.00;75.00
24087;DHT22;22893;50.572;7.234;2022-07-31T07:16:21;24.10;75.50
24087;DHT22;22893;50.572;7.234;2022-07-31T07:18:49;24.10;75.00
24087;DHT22;22893;50.572;7.234;2022-07-31T07:21:17;24.00;74.70
24087;DHT22;22893;50.572;7.234;2022-07-31T07:23:44;24.10;74.70
24087;DHT22;22893;50.572;7.234;2022-07-31T07:26:12;24.10;74.70
24087;DHT22;22893;50.572;7.234;2022-07-31T07:28:40;24.10;74.90
24087;DHT22;22893;50.572;7.234;2022-07-31T07:31:07;24.10;74.90
24087;DHT22;22893;50.572;7.234;2022-07-31T07:33:35;24.10;74.80
24087;DHT22;22893;50.572;7.234;2022-07-31T07:36:03;24.10;75.10
24087;DHT22;22893;50.572;7.234;2022-07-31T07:38:31;24.10;75.90
24087;DHT22;22893;50.572;7.234;2022-07-31T07:40:58;24.10;74.80
24087;DHT22;22893;50.572;7.234;2022-07-31T07:43:26;24.10;74.70
24087;DHT22;22893;50.572;7.234;2022-07-31T07:45:53;24.10;74.60
24087;DHT22;22893;50.572;7.234;2022-07-31T07:48:21;24.10;74.60
24087;DHT22;22893;50.572;7.234;2022-07-31T07:50:49;24.10;74.40
24087;DHT22;22893;50.572;7.234;2022-07-31T07:53:16;24.10;74.70
24087;DHT22;22893;50.572;7.234;2022-07-31T07:55:44;24.10;74.60
24087;DHT22;22893;50.572;7.234;2022-07-31T07:58:12;24.10;74.60
24087;DHT22;22893;50.572;7.234;2022-07-31T08:00:39;24.10;74.70
24087;DHT22;22893;50.572;7.234;2022-07-31T08:03:07;24.10;74.90
24087;DHT22;22893;50.572;7.234;2022-07-31T08:05:34;24.10;74.70
24087;DHT22;22893;50.572;7.234;2022-07-31T08:08:02;24.10;75.00
24087;DHT22;22893;50.572;7.234;2022-07-31T08:10:29;24.10;74.90
24087;DHT22;22893;50.572;7.234;2022-07-31T08:12:57;24.10;75.10
24087;DHT22;22893;50.572;7.234;2022-07-31T08:15:25;24.10;75.00
24087;DHT22;22893;50.572;7.234;2022-07-31T08:17:54;24.10;74.80
24087;DHT22;22893;50.572;7.234;2022-07-31T08:20:22;24.10;74.80
24087;DHT22;22893;50.572;7.234;2022-07-31T08:22:49;24.10;74.70
24087;DHT22;22893;50.572;7.234;2022-07-31T08:25:17;24.10;74.90
24087;DHT22;22893;50.572;7.234;2022-07-31T08:27:44;24.10;74.80
24087;DHT22;22893;50.572;7.234;2022-07-31T08:30:14;24.10;74.70
24087;DHT22;22893;50.572;7.234;2022-07-31T08:32:42;24.10;74.60
24087;DHT22;22893;50.572;7.234;2022-07-31T08:35:10;24.10;74.60
24087;DHT22;22893;50.572;7.234;2022-07-31T08:37:39;24.10;74.40
24087;DHT22;22893;50.572;7.234;2022-07-31T08:40:06;24.10;74.60
24087;DHT22;22893;50.572;7.234;2022-07-31T08:42:35;24.10;74.80
24087;DHT22;22893;50.572;7.234;2022-07-31T08:45:05;24.10;75.10
24087;DHT22;22893;50.572;7.234;2022-07-31T08:47:35;24.10;75.20
24087;DHT22;22893;50.572;7.234;2022-07-31T08:50:04;24.10;75.40
24087;DHT22;22893;50.572;7.234;2022-07-31T08:52:33;24.10;75.30
24087;DHT22;22893;50.572;7.234;2022-07-31T08:55:05;24.10;75.50
24087;DHT22;22893;50.572;7.234;2022-07-31T08:57:32;24.00;75.50
24087;DHT22;22893;50.572;7.234;2022-07-31T09:00:00;24.10;76.10
24087;DHT22;22893;50.572;7.234;2022-07-31T09:02:28;24.00;75.40
24087;DHT22;22893;50.572;7.234;2022-07-31T09:04:57;24.00;75.20
24087;DHT22;22893;50.572;7.234;2022-07-31T09:07:25;24.00;75.20
24087;DHT22;22893;50.572;7.234;2022-07-31T09:09:52;24.00;75.30
24087;DHT22;22893;50.572;7.234;2022-07-31T09:12:27;24.00;76.20
24087;DHT22;22893;50.572;7.234;2022-07-31T09:14:55;24.00;75.20
24087;DHT22;22893;50.572;7.234;2022-07-31T09:17:34;24.00;75.10
24087;DHT22;22893;50.572;7.234;2022-07-31T09:20:03;24.00;75.20
24087;DHT22;22893;50.572;7.234;2022-07-31T09:22:31;24.00;75.20
24087;DHT22;22893;50.572;7.234;2022-07-31T09:25:11;24.00;75.00
24087;DHT22;22893;50.572;7.234;2022-07-31T09:27:40;24.00;75.10
24087;DHT22;22893;50.572;7.234;2022-07-31T09:30:08;24.00;75.10
24087;DHT22;22893;50.572;7.234;2022-07-31T09:32:36;24.00;75.00
24087;DHT22;22893;50.572;7.234;2022-07-31T09:35:12;24.00;75.00
24087;DHT22;22893;50.572;7.234;2022-07-31T09:37:44;24.00;74.80
24087;DHT22;22893;50.572;7.234;2022-07-31T09:40:10;24.00;74.80
24087;DHT22;22893;50.572;7.234;2022-07-31T15:55:40;25.10;75.80
24087;DHT22;22893;50.572;7.234;2022-07-31T15:58:07;25.10;76.10
24087;DHT22;22893;50.572;7.234;2022-07-31T16:00:36;25.10;76.30
24087;DHT22;22893;50.572;7.234;2022-07-31T16:03:04;25.10;76.20
24087;DHT22;22893;50.572;7.234;2022-07-31T16:05:31;25.20;76.20
24087;DHT22;22893;50.572;7.234;2022-07-31T16:08:02;25.20;76.30
24087;DHT22;22893;50.572;7.234;2022-07-31T16:10:29;25.20;76.20
24087;DHT22;22893;50.572;7.234;2022-07-31T16:12:59;25.20;76.40
24087;DHT22;22893;50.572;7.234;2022-07-31T16:15:26;25.20;76.20
24087;DHT22;22893;50.572;7.234;2022-07-31T16:17:54;25.20;76.20
24087;DHT22;22893;50.572;7.234;2022-07-31T16:20:22;25.20;76.80
24087;DHT22;22893;50.572;7.234;2022-07-31T16:22:54;25.20;76.50
24087;DHT22;22893;50.572;7.234;2022-07-31T16:25:23;25.20;76.30
24087;DHT22;22893;50.572;7.234;2022-07-31T16:27:51;25.20;76.20
24087;DHT22;22893;50.572;7.234;2022-07-31T16:30:19;25.20;76.20
24087;DHT22;22893;50.572;7.234;2022-07-31T16:32:47;25.20;76.30
24087;DHT22;22893;50.572;7.234;2022-07-31T16:35:14;25.20;76.10
24087;DHT22;22893;50.572;7.234;2022-07-31T16:37:42;25.30;76.10
24087;DHT22;22893;50.572;7.234;2022-07-31T16:40:10;25.20;76.30
24087;DHT22;22893;50.572;7.234;2022-07-31T16:42:38;25.20;76.20
24087;DHT22;22893;50.572;7.234;2022-07-31T16:45:07;25.20;76.40
24087;DHT22;22893;50.572;7.234;2022-07-31T16:47:35;25.30;76.30
24087;DHT22;22893;50.572;7.234;2022-07-31T16:50:03;25.20;76.20
24087;DHT22;22893;50.572;7.234;2022-07-31T16:52:31;25.20;76.40
24087;DHT22;22893;50.572;7.234;2022-07-31T16:54:58;25.30;76.50
24087;DHT22;22893;50.572;7.234;2022-07-31T16:57:25;25.30;76.40
24087;DHT22;22893;50.572;7.234;2022-07-31T16:59:53;25.30;76.50
24087;DHT22;22893;50.572;7.234;2022-07-31T17:02:20;25.30;76.70
24087;DHT22;22893;50.572;7.234;2022-07-31T17:04:48;25.30;76.80
24087;DHT22;22893;50.572;7.234;2022-07-31T17:07:16;25.30;76.70
24087;DHT22;22893;50.572;7.234;2022-07-31T17:09:43;25.30;76.70
24087;DHT22;22893;50.572;7.234;2022-07-31T17:12:11;25.30;76.60
24087;DHT22;22893;50.572;7.234;2022-07-31T17:14:38;25.30;76.60
24087;DHT22;22893;50.572;7.234;2022-07-31T17:17:08;25.30;77.00
24087;DHT22;22893;50.572;7.234;2022-07-31T17:19:35;25.30;76.50
24087;DHT22;22893;50.572;7.234;2022-07-31T17:22:04;25.30;76.70
24087;DHT22;22893;50.572;7.234;2022-07-31T17:24:31;25.30;76.40
24087;DHT22;22893;50.572;7.234;2022-07-31T17:27:01;25.30;76.70
24087;DHT22;22893;50.572;7.234;2022-07-31T17:29:30;25.40;76.40
24087;DHT22;22893;50.572;7.234;2022-07-31T17:31:58;25.30;76.30
24087;DHT22;22893;50.572;7.234;2022-07-31T17:34:26;25.30;76.20
24087;DHT22;22893;50.572;7.234;2022-07-31T17:36:53;25.30;76.30
24087;DHT22;22893;50.572;7.234;2022-07-31T17:39:21;25.30;76.30
24087;DHT22;22893;50.572;7.234;2022-07-31T17:41:50;25.40;76.20
24087;DHT22;22893;50.572;7.234;2022-07-31T17:44:19;25.40;76.20
24087;DHT22;22893;50.572;7.234;2022-07-31T17:46:46;25.40;76.20
24087;DHT22;22893;50.572;7.234;2022-07-31T17:49:14;25.40;76.10
24087;DHT22;22893;50.572;7.234;2022-07-31T17:51:42;25.40;76.30
24087;DHT22;22893;50.572;7.234;2022-07-31T17:54:10;25.40;76.40
24087;DHT22;22893;50.572;7.234;2022-07-31T17:56:37;25.40;76.20
24087;DHT22;22893;50.572;7.234;2022-07-31T17:59:05;25.40;76.20
24087;DHT22;22893;50.572;7.234;2022-07-31T18:01:33;25.40;76.20
24087;DHT22;22893;50.572;7.234;2022-07-31T18:04:01;25.40;76.30
24087;DHT22;22893;50.572;7.234;2022-07-31T18:06:29;25.50;76.50
24087;DHT22;22893;50.572;7.234;2022-07-31T18:08:57;25.40;76.30
24087;DHT22;22893;50.572;7.234;2022-07-31T18:11:25;25.40;76.40
24087;DHT22;22893;50.572;7.234;2022-07-31T18:13:53;25.40;76.50
24087;DHT22;22893;50.572;7.234;2022-07-31T18:16:20;25.40;76.30
24087;DHT22;22893;50.572;7.234;2022-07-31T18:18:49;25.40;76.60
24087;DHT22;22893;50.572;7.234;2022-07-31T18:21:17;25.40;76.60
24087;DHT22;22893;50.572;7.234;2022-07-31T18:23:44;25.40;76.60
24087;DHT22;22893;50.572;7.234;2022-07-31T18:26:12;25.40;76.90
24087;DHT22;22893;50.572;7.234;2022-07-31T18:28:39;25.40;76.60
24087;DHT22;22893;50.572;7.234;2022-07-31T18:31:07;25.40;76.60
24087;DHT22;22893;50.572;7.234;2022-07-31T18:33:35;25.40;76.50
24087;DHT22;22893;50.572;7.234;2022-07-31T18:36:04;25.40;76.50
24087;DHT22;22893;50.572;7.234;2022-07-31T18:38:32;25.40;76.50
24087;DHT22;22893;50.572;7.234;2022-07-31T18:40:59;25.40;76.60
24087;DHT22;22893;50.572;7.234;2022-07-31T18:43:27;25.40;76.40
24087;DHT22;22893;50.572;7.234;2022-07-31T18:45:55;25.40;76.50
24087;DHT22;22893;50.572;7.234;2022-07-31T18:48:23;25.40;76.50
24087;DHT22;22893;50.572;7.234;2022-07-31T18:50:50;25.40;76.50
24087;DHT22;22893;50.572;7.234;2022-07-31T18:53:18;25.40;76.60
24087;DHT22;22893;50.572;7.234;2022-07-31T18:55:46;25.40;76.80
24087;DHT22;22893;50.572;7.234;2022-07-31T18:58:13;25.40;76.70
24087;DHT22;22893;50.572;7.234;2022-07-31T19:00:41;25.40;76.70
24087;DHT22;22893;50.572;7.234;2022-07-31T19:03:09;25.40;76.60
24087;DHT22;22893;50.572;7.234;2022-07-31T19:05:37;25.40;76.60
24087;DHT22;22893;50.572;7.234;2022-07-31T19:08:05;25.40;76.70
24087;DHT22;22893;50.572;7.234;2022-07-31T19:10:32;25.40;77.00
24087;DHT22;22893;50.572;7.234;2022-07-31T19:13:00;25.40;77.70
24087;DHT22;22893;50.572;7.234;2022-07-31T19:15:27;25.40;76.70
24087;DHT22;22893;50.572;7.234;2022-07-31T19:17:55;25.40;77.20
24087;DHT22;22893;50.572;7.234;2022-07-31T19:20:23;25.40;77.40
24087;DHT22;22893;50.572;7.234;2022-07-31T19:22:52;25.40;77.60
24087;DHT22;22893;50.572;7.234;2022-07-31T19:25:20;25.40;77.80
24087;DHT22;22893;50.572;7.234;2022-07-31T19:27:47;25.40;78.10
24087;DHT22;22893;50.572;7.234;2022-07-31T19:30:15;25.40;77.60
24087;DHT22;22893;50.572;7.234;2022-07-31T19:32:43;25.40;77.50
24087;DHT22;22893;50.572;7.234;2022-07-31T19:35:10;25.40;77.50
24087;DHT22;22893;50.572;7.234;2022-07-31T19:37:38;25.40;77.80
24087;DHT22;22893;50.572;7.234;2022-07-31T19:40:06;25.40;77.60
24087;DHT22;22893;50.572;7.234;2022-07-31T19:42:34;25.40;77.90
24087;DHT22;22893;50.572;7.234;2022-07-31T19:45:02;25.40;78.60
24087;DHT22;22893;50.572;7.234;2022-07-31T19:47:29;25.50;78.20
24087;DHT22;22893;50.572;7.234;2022-07-31T19:49:57;25.50;78.50
24087;DHT22;22893;50.572;7.234;2022-07-31T19:52:25;25.50;78.20
24087;DHT22;22893;50.572;7.234;2022-07-31T19:54:55;25.40;77.80
24087;DHT22;22893;50.572;7.234;2022-07-31T19:57:23;25.40;78.10
24087;DHT22;22893;50.572;7.234;2022-07-31T19:59:50;25.40;78.10
24087;DHT22;22893;50.572;7.234;2022-07-31T20:02:18;25.50;77.90
24087;DHT22;22893;50.572;7.234;2022-07-31T20:04:45;25.40;77.70
24087;DHT22;22893;50.572;7.234;2022-07-31T20:07:13;25.40;78.50
24087;DHT22;22893;50.572;7.234;2022-07-31T20:09:41;25.40;77.70
24087;DHT22;22893;50.572;7.234;2022-07-31T20:12:10;25.40;77.80
24087;DHT22;22893;50.572;7.234;2022-07-31T20:14:38;25.50;77.70
24087;DHT22;22893;50.572;7.234;2022-07-31T20:17:06;25.40;77.90
24087;DHT22;22893;50.572;7.234;2022-07-31T20:19:34;25.40;78.10
24087;DHT22;22893;50.572;7.234;2022-07-31T20:22:01;25.40;77.60
24087;DHT22;22893;50.572;7.234;2022-07-31T20:24:48;25.40;77.50
24087;DHT22;22893;50.572;7.234;2022-07-31T20:27:16;25.40;77.40
24087;DHT22;22893;50.572;7.234;2022-07-31T20:29:44;25.50;77.70
24087;DHT22;22893;50.572;7.234;2022-07-31T20:32:12;25.50;77.60
24087;DHT22;22893;50.572;7.234;2022-07-31T20:34:39;25.40;77.50
24087;DHT22;22893;50.572;7.234;2022-07-31T20:37:07;25.50;77.40
24087;DHT22;22893;50.572;7.234;2022-07-31T20:39:34;25.40;77.50
24087;DHT22;22893;50.572;7.234;2022-07-31T20:42:02;25.40;77.70
24087;DHT22;22893;50.572;7.234;2022-07-31T20:44:31;25.50;77.70
24087;DHT22;22893;50.572;7.234;2022-07-31T20:46:59;25.40;77.80
24087;DHT22;22893;50.572;7.234;2022-07-31T20:49:26;25.40;77.80
24087;DHT22;22893;50.572;7.234;2022-07-31T20:51:54;25.40;77.70
24087;DHT22;22893;50.572;7.234;2022-07-31T20:54:22;25.40;77.40
24087;DHT22;22893;50.572;7.234;2022-07-31T20:56:49;25.40;77.80
24087;DHT22;22893;50.572;7.234;2022-07-31T20:59:17;25.40;77.50
24087;DHT22;22893;50.572;7.234;2022-07-31T21:01:45;25.50;77.50
24087;DHT22;22893;50.572;7.234;2022-07-31T21:04:12;25.40;77.50
24087;DHT22;22893;50.572;7.234;2022-07-31T21:06:40;25.50;78.20
24087;DHT22;22893;50.572;7.234;2022-07-31T21:09:08;25.50;77.70
24087;DHT22;22893;50.572;7.234;2022-07-31T21:11:36;25.50;77.70
24087;DHT22;22893;50.572;7.234;2022-07-31T21:14:04;25.40;77.40
24087;DHT22;22893;50.572;7.234;2022-07-31T21:16:31;25.50;77.60
24087;DHT22;22893;50.572;7.234;2022-07-31T21:18:59;25.50;77.70
24087;DHT22;22893;50.572;7.234;2022-07-31T21:21:26;25.40;77.50
24087;DHT22;22893;50.572;7.234;2022-07-31T21:23:54;25.40;77.20
24087;DHT22;22893;50.572;7.234;2022-07-31T21:26:23;25.40;77.80
24087;DHT22;22893;50.572;7.234;2022-07-31T21:28:53;25.40;77.80
24087;DHT22;22893;50.572;7.234;2022-07-31T21:31:21;25.40;77.60
24087;DHT22;22893;50.572;7.234;2022-07-31T21:33:48;25.40;77.80
24087;DHT22;22893;50.572;7.234;2022-07-31T21:36:16;25.50;78.30
24087;DHT22;22893;50.572;7.234;2022-07-31T21:38:46;25.50;78.10
24087;DHT22;22893;50.572;7.234;2022-07-31T21:41:14;25.50;78.00
24087;DHT22;22893;50.572;7.234;2022-07-31T21:43:42;25.50;77.70
24087;DHT22;22893;50.572;7.234;2022-07-31T21:46:14;25.50;78.20
24087;DHT22;22893;50.572;7.234;2022-07-31T21:48:44;25.40;78.10
24087;DHT22;22893;50.572;7.234;2022-07-31T21:51:12;25.40;77.70
24087;DHT22;22893;50.572;7.234;2022-07-31T21:53:41;25.50;78.30
24087;DHT22;22893;50.572;7.234;2022-07-31T21:58:38;25.50;78.10
24087;DHT22;22893;50.572;7.234;2022-07-31T22:01:05;25.40;78.10
24087;DHT22;22893;50.572;7.234;2022-07-31T22:03:33;25.40;78.30
24087;DHT22;22893;50.572;7.234;2022-07-31T22:06:00;25.50;78.40
24087;DHT22;22893;50.572;7.234;2022-07-31T22:08:47;25.40;78.10
24087;DHT22;22893;50.572;7.234;2022-07-31T22:11:14;25.50;77.90
24087;DHT22;22893;50.572;7.234;2022-07-31T22:13:43;25.50;78.30
24087;DHT22;22893;50.572;7.234;2022-07-31T22:16:10;25.50;78.30
24087;DHT22;22893;50.572;7.234;2022-07-31T22:18:38;25.50;77.80
24087;DHT22;22893;50.572;7.234;2022-07-31T22:21:07;25.40;78.10
24087;DHT22;22893;50.572;7.234;2022-07-31T22:23:35;25.50;78.20
24087;DHT22;22893;50.572;7.234;2022-07-31T22:26:02;25.40;77.70
24087;DHT22;22893;50.572;7.234;2022-07-31T22:28:30;25.40;78.10
24087;DHT22;22893;50.572;7.234;2022-07-31T22:30:58;25.50;78.40
24087;DHT22;22893;50.572;7.234;2022-07-31T22:33:26;25.50;78.30
24087;DHT22;22893;50.572;7.234;2022-07-31T22:35:56;25.50;78.50
24087;DHT22;22893;50.572;7.234;2022-07-31T22:38:26;25.50;78.70
24087;DHT22;22893;50.572;7.234;2022-07-31T22:41:13;25.40;78.60
24087;DHT22;22893;50.572;7.234;2022-07-31T22:43:42;25.40;78.30
24087;DHT22;22893;50.572;7.234;2022-07-31T22:46:11;25.50;79.00
24087;DHT22;22893;50.572;7.234;2022-07-31T22:48:39;25.50;78.70
24087;DHT22;22893;50.572;7.234;2022-07-31T22:51:07;25.50;78.70
24087;DHT22;22893;50.572;7.234;2022-07-31T22:53:35;25.50;78.80
24087;DHT22;22893;50.572;7.234;2022-07-31T22:56:03;25.50;78.60
24087;DHT22;22893;50.572;7.234;2022-07-31T22:58:31;25.40;78.60
24087;DHT22;22893;50.572;7.234;2022-07-31T23:00:58;25.50;78.90
24087;DHT22;22893;50.572;7.234;2022-07-31T23:03:26;25.50;79.00
24087;DHT22;22893;50.572;7.234;2022-07-31T23:05:53;25.50;78.80
24087;DHT22;22893;50.572;7.234;2022-07-31T23:08:21;25.50;78.60
24087;DHT22;22893;50.572;7.234;2022-07-31T23:10:48;25.50;78.60
24087;DHT22;22893;50.572;7.234;2022-07-31T23:13:16;25.50;78.70
24087;DHT22;22893;50.572;7.234;2022-07-31T23:15:44;25.50;78.80
24087;DHT22;22893;50.572;7.234;2022-07-31T23:18:11;25.50;78.70
24087;DHT22;22893;50.572;7.234;2022-07-31T23:20:39;25.50;78.70
24087;DHT22;22893;50.572;7.234;2022-07-31T23:23:07;25.40;78.60
24087;DHT22;22893;50.572;7.234;2022-07-31T23:25:34;25.40;78.50
24087;DHT22;22893;50.572;7.234;2022-07-31T23:28:02;25.40;79.40
24087;DHT22;22893;50.572;7.234;2022-07-31T23:30:29;25.40;79.30
24087;DHT22;22893;50.572;7.234;2022-07-31T23:32:57;25.40;79.40
24087;DHT22;22893;50.572;7.234;2022-07-31T23:35:24;25.40;79.50
24087;DHT22;22893;50.572;7.234;2022-07-31T23:37:52;25.40;79.10
24087;DHT22;22893;50.572;7.234;2022-07-31T23:40:20;25.40;79.00
24087;DHT22;22893;50.572;7.234;2022-07-31T23:42:47;25.50;79.80
24087;DHT22;22893;50.572;7.234;2022-07-31T23:45:15;25.40;78.60
24087;DHT22;22893;50.572;7.234;2022-07-31T23:47:42;25.40;78.60
24087;DHT22;22893;50.572;7.234;2022-07-31T23:50:10;25.40;78.60
24087;DHT22;22893;50.572;7.234;2022-07-31T23:52:37;25.40;78.60
24087;DHT22;22893;50.572;7.234;2022-07-31T23:55:05;25.40;78.60
24087;DHT22;22893;50.572;7.234;2022-07-31T23:57:33;25.40;78.50
